• Join FlightAware (Why Join?)
  • Login
  • US Flag 
06:17PM EST


 

Airport Tracker/Info


-or-


 

Live Flight TrackerFlight Track Log ✈ DAL6044 ✈ 05-May-2013 ✈ KCLE - KLGA

Flight Track Log - Related Links

Times and Time Zones

All times are in EDT time to prevent confusion due to time zone crossing. See the DAL6044 flight status page for this flight to view local times or setup timezone preferences in your user account.

Time Position Orientation Groundspeed Altitude Reporting Facility
EDT Latitude Longitude Course Direction KTS MPH feet Rate Location/Type
07:32PM 41.4153 -81.8403 105° East 169 194 1,700  Level Cleveland Center
07:34PM 41.4739 -81.8053 24° Northeast 206 237 4,300 2,400 Climbing Cleveland Center
07:35PM 41.5267 -81.7508 38° Northeast 220 253 7,100 2,640 Climbing Cleveland Center
07:36PM 41.7201 -81.5299 37° Northeast  Level FlightAware Approximate
07:36PM 41.5836 -81.6908 38° Northeast 245 282 9,600  Level Cleveland Center
07:37PM 41.8007 -81.4494 37° Northeast  Level FlightAware Approximate
07:37PM 41.6467 -81.6250 38° Northeast 273 314 11,100  Level Cleveland Center
07:38PM 41.8243 -81.3380 105° East  Level FlightAware Approximate
07:38PM 41.7161 -81.5483 39° Northeast 309 356 12,800  Level Cleveland Center
07:39PM 41.7794 -81.4547 48° Northeast 330 380 14,400 1,380 Climbing Cleveland Center
07:40PM 41.7425 -81.3594 117° Southeast 265 305 15,600 1,440 Climbing Cleveland Center
07:41PM 41.6767 -81.2614 132° Southeast 328 377 17,300 1,860 Climbing Cleveland Center
07:42PM 41.6125 -81.1692 133° Southeast 328 377 19,400 1,800 Climbing Cleveland Center
07:43PM 41.5608 -81.0661 124° Southeast 339 390 21,000 1,500 Climbing Cleveland Center
07:44PM 41.5383 -80.9272 102° East 344 396 22,400 1,500 Climbing Cleveland Center
07:45PM 41.5242 -80.7911 98° East 349 402 24,100 1,740 Climbing Cleveland Center
07:46PM 41.5097 -80.6608 98° East 355 409 25,900 1,500 Climbing Cleveland Center
07:47PM 41.4972 -80.5306 97° East 355 409 27,100 1,080 Climbing Cleveland Center
07:48PM 41.4825 -80.3975 98° East 355 409 28,100 1,020 Climbing Cleveland Center
07:49PM 41.4675 -80.2533 98° East 371 427 29,200 1,020 Climbing Cleveland Center
07:50PM 41.4525 -80.1122 98° East 371 427 30,200 900 Climbing Cleveland Center
07:51PM 41.4350 -79.9683 99° East 377 434 31,000 360 Climbing Cleveland Center
07:52PM 41.4175 -79.8217 99° East 389 448 31,000  Level Cleveland Center
07:53PM 41.4019 -79.6781 98° East 396 456 31,000  Level Cleveland Center
07:54PM 41.3861 -79.5286 98° East 396 456 31,000  Level Cleveland Center
07:55PM 41.3700 -79.3822 98° East 401 461 31,000  Level Cleveland Center
07:56PM 41.3497 -79.2389 101° East 401 461 31,000  Level Cleveland Center
07:57PM 41.3311 -79.0844 99° East 407 468 31,000  Level Cleveland Center
07:58PM 41.3122 -78.9244 99° East 419 482 31,000  Level Cleveland Center
07:59PM 41.2953 -78.7647 98° East 425 489 31,000  Level Cleveland Center
08:00PM 41.2758 -78.6103 99° East 425 489 31,000  Level Cleveland Center
08:01PM 41.2564 -78.4536 99° East 425 489 31,000  Level Cleveland Center
08:01PM 41.2431 -78.3653 101° East 424 488 31,000  Level New York Center
08:02PM 41.2239 -78.2086 99° East 424 488 31,000  Level New York Center
08:03PM 41.2022 -78.0544 101° East 424 488 31,000  Level New York Center
08:04PM 41.1844 -77.8981 99° East 424 488 31,000  Level New York Center
08:05PM 41.1647 -77.7417 99° East 424 488 31,000  Level New York Center
08:06PM 41.1447 -77.5825 99° East 424 488 31,000 -900 Level New York Center
08:07PM 41.1242 -77.4289 100° East 424 488 29,300 -1,740 Descending New York Center
08:08PM 41.1039 -77.2697 100° East 411 473 27,500 -1,740 Descending New York Center
08:09PM 41.0825 -77.1244 101° East 401 461 25,900 -1,620 Descending New York Center
08:10PM 41.0650 -76.9853 99° East 396 456 24,300 -1,560 Descending New York Center
08:11PM 41.0469 -76.8514 100° East 385 443 22,900 -1,440 Descending New York Center
08:12PM 41.0283 -76.7261 101° East 362 417 21,500 -1,440 Descending New York Center
08:13PM 41.0072 -76.6031 103° East 348 400 20,100 -1,380 Descending New York Center
08:14PM 40.9797 -76.4825 107° East 342 394 18,800 -1,080 Descending New York Center
08:15PM 40.9519 -76.3703 108° East 330 380 18,000 -420 Descending New York Center
08:16PM 40.9258 -76.2611 108° East 336 387 18,000 -180 Level New York Center
08:17PM 40.8942 -76.1322 108° East 336 387 17,700 -840 Descending New York Center
08:18PM 40.8658 -76.0175 108° East 331 381 16,300 -1,500 Descending New York Center
08:19PM 40.8397 -75.9058 107° East 331 381 14,700 -1,620 Descending New York Center
08:20PM 40.8128 -75.8050 109° East 326 375 13,100 -900 Descending New York Center
08:21PM 40.7825 -75.6794 108° East 321 369 13,000 -60 Descending New York Center
08:22PM 40.7558 -75.5706 108° East 321 369 13,000 -180 Level New York Center
08:23PM 40.7306 -75.4703 108° East 315 362 12,700 -660 Descending New York Center
08:24PM 40.7078 -75.3592 105° East 315 362 11,700 -960 Descending New York Center
08:25PM 40.6869 -75.2511 104° East 310 357 10,900 -900 Descending New York Center
08:26PM 40.6558 -75.1369 110° East 305 351 10,000 -480 Descending New York Center
08:27PM 40.6006 -75.0542 131° Southeast 300 345 10,000  Level New York Center
08:28PM 40.5575 -74.9750 126° Southeast 295 339 10,000  Level New York Center
08:29PM 40.5278 -74.8747 111° Southeast 274 315 10,000  Level New York Center
08:30PM 40.5000 -74.8000 116° Southeast 280 322 10,000  Level New York TRACON
08:31PM 40.4667 -74.7000 114° Southeast 282 325 10,000  Level New York TRACON
08:32PM 40.4500 -74.6000 102° East 279 321 10,000 -540 Level New York TRACON
08:33PM 40.4167 -74.5167 118° Southeast 275 316 9,000 -1,020 Descending New York TRACON
08:34PM 40.3833 -74.4167 114° Southeast 267 307 8,000 -540 Descending New York TRACON
08:35PM 40.3667 -74.3333 105° East 270 311 8,000 -540 Level New York TRACON
08:36PM 40.4000 -74.2500 62° Northeast 271 312 7,000 -1,200 Descending New York TRACON
08:37PM 40.4500 -74.1833 45° Northeast 259 298 5,600 -1,380 Descending New York TRACON
08:38PM 40.5000 -74.1167 45° Northeast 251 289 4,300 -840 Descending New York TRACON
08:39PM 40.5667 -74.0667 30° Northeast 240 276 4,000 -180 Descending New York TRACON
08:40PM 40.6333 -74.0500 11° North 252 290 4,000  Level New York TRACON
08:41PM 40.7000 -74.0333 11° North 244 281 4,000  Level New York TRACON
08:42PM 40.7667 -74.0167 11° North 251 289 4,000  Level New York TRACON
08:43PM 40.8167 -73.9667 37° Northeast 241 277 4,000  Level New York TRACON
08:44PM 40.8833 -73.9500 11° North 189 217 4,000  Level New York TRACON
08:45PM 40.9167 -73.9167 37° Northeast 185 213 4,000  Level New York TRACON
08:46PM 40.9667 -73.9000 14° North 189 217 4,000 -60 Level New York TRACON
08:47PM 40.9667 -73.8500 90° East 176 203 3,900 -540 Descending New York TRACON
08:48PM 40.9333 -73.7833 123° Southeast 170 196 3,000 -900 Descending New York TRACON
08:49PM 40.9000 -73.7833 180° South 159 183 2,100 -600 Descending New York TRACON
08:50PM 40.8667 -73.8000 201° Southwest 142 163 1,900 -540 Descending New York TRACON
08:51PM 40.8333 -73.8333 217° Southwest 137 158 1,100 -780 Descending New York TRACON
08:52PM 40.8000 -73.8667 217° Southwest 135 155 400 -720 Descending New York TRACON